createdAt,value
2022-08-06T00:00:10.141Z,23.29
2022-08-06T00:02:40.217Z,23.21
2022-08-06T00:05:17.580Z,23.21
2022-08-06T00:07:48.364Z,23.21
2022-08-06T00:10:18.058Z,23.21
2022-08-06T00:12:48.384Z,23.23
2022-08-06T00:15:42.619Z,23.21
2022-08-06T00:18:07.869Z,23.22
2022-08-06T00:20:41.713Z,23.23
2022-08-06T00:23:16.451Z,23.20
2022-08-06T00:25:52.054Z,23.19
2022-08-06T00:28:31.491Z,23.19
2022-08-06T00:31:06.266Z,23.14
2022-08-06T00:33:50.327Z,23.13
2022-08-06T00:36:28.221Z,23.13
2022-08-06T00:39:00.334Z,23.08
2022-08-06T00:41:41.891Z,23.09
2022-08-06T00:44:14.419Z,23.09
2022-08-06T00:46:45.119Z,23.02
2022-08-06T00:49:13.613Z,23.08
2022-08-06T00:52:02.339Z,23.06
2022-08-06T00:54:35.698Z,23.05
2022-08-06T00:57:07.643Z,23.02
2022-08-06T00:59:39.860Z,22.91
2022-08-06T01:02:10.107Z,22.89
2022-08-06T01:04:38.784Z,22.81
2022-08-06T01:07:09.036Z,22.77
2022-08-06T01:09:46.102Z,22.66
2022-08-06T01:12:33.373Z,22.65
2022-08-06T01:15:16.244Z,22.54
2022-08-06T01:18:00.024Z,22.44
2022-08-06T01:21:58.939Z,22.34
2022-08-06T01:23:21.874Z,22.32
2022-08-06T01:26:09.032Z,22.28
2022-08-06T01:28:51.893Z,22.22
2022-08-06T01:31:31.937Z,22.16
2022-08-06T01:34:17.999Z,22.10
2022-08-06T01:36:50.568Z,22.04
2022-08-06T01:39:53.764Z,21.91
2022-08-06T01:42:13.388Z,21.91
2022-08-06T01:44:48.101Z,21.82
2022-08-06T01:47:21.212Z,21.69
2022-08-06T01:50:00.494Z,21.68
2022-08-06T01:52:40.778Z,21.62
2022-08-06T01:55:14.025Z,21.55
2022-08-06T01:58:08.053Z,21.53
2022-08-06T02:00:46.142Z,21.51
2022-08-06T02:03:24.091Z,21.48
2022-08-06T02:05:58.022Z,21.44
2022-08-06T02:08:36.509Z,21.39
2022-08-06T02:12:01.574Z,21.36
2022-08-06T02:14:01.365Z,21.31
2022-08-06T02:16:33.469Z,21.24
2022-08-06T02:19:10.414Z,21.20
2022-08-06T02:21:50.517Z,21.17
2022-08-06T02:24:24.266Z,21.13
2022-08-06T02:26:56.473Z,21.08
2022-08-06T02:29:27.040Z,21.06
2022-08-06T02:32:15.914Z,21.00
2022-08-06T02:34:44.033Z,21.03
2022-08-06T02:37:22.612Z,21.01
2022-08-06T02:39:57.165Z,20.97
2022-08-06T02:42:42.405Z,20.90
2022-08-06T02:45:58.202Z,20.83
2022-08-06T02:48:53.394Z,20.84
2022-08-06T02:52:10.933Z,20.80
2022-08-06T02:54:46.975Z,20.77
2022-08-06T02:57:48.524Z,20.75
2022-08-06T03:00:29.160Z,20.73
2022-08-06T03:03:01.440Z,20.69
2022-08-06T03:05:55.975Z,20.72
2022-08-06T03:08:26.337Z,20.68
2022-08-06T03:10:56.158Z,20.68
2022-08-06T03:13:29.638Z,20.66
2022-08-06T03:16:23.449Z,20.66
2022-08-06T03:19:54.539Z,20.66
2022-08-06T03:21:55.736Z,20.65
2022-08-06T03:24:26.866Z,20.52
2022-08-06T03:26:58.690Z,20.57
2022-08-06T03:29:28.524Z,20.59
2022-08-06T03:32:24.442Z,20.54
2022-08-06T03:34:47.818Z,20.53
2022-08-06T03:37:21.493Z,20.49
2022-08-06T03:40:00.961Z,20.49
2022-08-06T03:42:32.901Z,20.51
2022-08-06T03:45:06.367Z,20.47
2022-08-06T03:47:49.506Z,20.34
2022-08-06T03:50:37.769Z,20.23
2022-08-06T03:53:14.215Z,20.18
2022-08-06T03:55:45.893Z,20.24
2022-08-06T03:58:28.092Z,20.23
2022-08-06T04:01:08.888Z,20.03
2022-08-06T04:03:39.601Z,19.98
2022-08-06T04:06:16.145Z,20.13
2022-08-06T04:08:46.074Z,20.00
2022-08-06T04:12:14.572Z,20.17
2022-08-06T04:14:08.599Z,20.21
2022-08-06T04:16:38.152Z,20.11
2022-08-06T04:19:12.667Z,20.07
2022-08-06T04:22:57.065Z,20.26
2022-08-06T04:24:32.795Z,20.32
2022-08-06T04:27:09.857Z,20.33
2022-08-06T04:29:56.328Z,20.46
2022-08-06T04:32:28.833Z,20.54
2022-08-06T04:36:06.381Z,20.73
2022-08-06T04:37:48.068Z,20.86
2022-08-06T04:40:34.499Z,21.06
2022-08-06T04:43:08.557Z,21.41
2022-08-06T04:46:16.111Z,21.70
2022-08-06T04:48:34.244Z,22.41
2022-08-06T04:51:10.238Z,25.06
2022-08-06T04:53:56.968Z,28.32
2022-08-06T04:56:33.302Z,29.98
2022-08-06T04:59:07.428Z,31.44
2022-08-06T05:01:40.891Z,32.58
2022-08-06T05:04:26.322Z,33.51
2022-08-06T05:07:02.458Z,34.32
2022-08-06T05:09:42.349Z,34.44
2022-08-06T05:12:28.408Z,35.59
2022-08-06T05:15:21.275Z,36.70
2022-08-06T05:17:57.970Z,35.23
2022-08-06T05:20:33.026Z,36.05
2022-08-06T05:23:08.782Z,36.37
2022-08-06T05:25:53.982Z,33.61
2022-08-06T05:28:27.781Z,33.45
2022-08-06T05:30:57.314Z,31.44
2022-08-06T05:33:32.266Z,29.93
2022-08-06T05:36:11.877Z,28.99
2022-08-06T05:38:58.529Z,28.49
2022-08-06T05:41:33.200Z,27.66
2022-08-06T05:44:03.392Z,27.33
2022-08-06T05:46:37.032Z,27.28
2022-08-06T05:49:12.172Z,26.86
2022-08-06T05:52:10.693Z,27.28
2022-08-06T05:54:54.399Z,27.24
2022-08-06T05:57:42.244Z,27.35
2022-08-06T06:00:31.555Z,27.59
2022-08-06T06:03:06.132Z,27.22
2022-08-06T06:06:08.192Z,27.97
2022-08-06T06:08:29.432Z,27.87
2022-08-06T06:11:10.587Z,27.70
2022-08-06T06:13:58.429Z,28.29
2022-08-06T06:16:35.645Z,28.50
2022-08-06T06:19:15.390Z,28.59
2022-08-06T06:21:49.050Z,28.72
2022-08-06T06:24:27.260Z,29.25
2022-08-06T06:27:23.243Z,29.26
2022-08-06T06:30:11.059Z,28.88
2022-08-06T06:32:47.882Z,28.96
2022-08-06T06:35:33.981Z,29.22
2022-08-06T06:38:09.634Z,29.26
2022-08-06T06:41:19.909Z,29.42
2022-08-06T06:44:17.586Z,29.19
2022-08-06T06:47:36.442Z,28.95
2022-08-06T06:50:24.217Z,28.91
2022-08-06T06:52:56.325Z,29.21
2022-08-06T06:55:55.761Z,29.66
2022-08-06T06:58:49.978Z,29.67
2022-08-06T07:01:28.259Z,29.71
2022-08-06T07:04:00.036Z,29.98
2022-08-06T07:06:43.379Z,29.59
2022-08-06T07:09:39.146Z,29.54
2022-08-06T07:12:19.723Z,29.62
2022-08-06T07:14:58.254Z,30.02
2022-08-06T07:17:59.687Z,29.82
2022-08-06T07:20:26.023Z,29.74
2022-08-06T07:24:03.891Z,29.13
2022-08-06T07:25:54.621Z,28.89
2022-08-06T07:28:28.792Z,29.12
2022-08-06T07:31:04.201Z,29.63
2022-08-06T07:34:01.334Z,29.87
2022-08-06T07:36:31.865Z,30.18
2022-08-06T07:39:16.037Z,30.42
2022-08-06T07:42:07.070Z,30.46
2022-08-06T07:44:54.806Z,30.25
2022-08-06T07:47:54.356Z,30.65
2022-08-06T07:50:25.465Z,30.90
2022-08-06T07:52:56.869Z,30.74
2022-08-06T07:55:36.896Z,31.09
2022-08-06T07:58:07.387Z,31.17
2022-08-06T08:00:38.595Z,31.44
2022-08-06T08:03:55.711Z,31.31
2022-08-06T08:06:21.278Z,31.74
2022-08-06T08:08:53.258Z,32.08
2022-08-06T08:11:38.415Z,32.19
2022-08-06T08:14:15.295Z,34.36
2022-08-06T08:16:44.142Z,35.69
2022-08-06T08:19:34.846Z,36.91
2022-08-06T08:22:10.235Z,37.21
2022-08-06T08:24:54.575Z,39.18
2022-08-06T08:27:23.508Z,38.20
2022-08-06T08:29:56.761Z,38.49
2022-08-06T08:32:26.476Z,38.48
2022-08-06T08:34:57.409Z,39.07
2022-08-06T08:37:26.171Z,39.93
2022-08-06T08:39:55.669Z,40.22
2022-08-06T08:42:38.117Z,38.87
2022-08-06T08:45:09.110Z,38.31
2022-08-06T08:47:52.969Z,38.32
2022-08-06T08:50:24.626Z,38.42
2022-08-06T08:53:09.909Z,39.56
2022-08-06T08:57:01.947Z,40.06
2022-08-06T08:58:42.165Z,40.39
2022-08-06T09:01:51.800Z,39.32
2022-08-06T09:04:05.510Z,38.98
2022-08-06T09:06:39.695Z,38.28
2022-08-06T09:09:15.798Z,38.31
2022-08-06T09:12:05.668Z,38.84
2022-08-06T09:14:33.466Z,39.14
2022-08-06T09:17:04.835Z,39.08
2022-08-06T09:19:37.826Z,39.69
2022-08-06T09:22:09.317Z,38.28
2022-08-06T09:24:39.363Z,38.47
2022-08-06T09:27:46.984Z,38.72
2022-08-06T09:30:25.305Z,37.71
2022-08-06T09:32:57.513Z,37.55
2022-08-06T09:35:44.877Z,37.82
2022-08-06T09:38:17.540Z,38.21
2022-08-06T09:41:15.368Z,36.91
2022-08-06T09:44:02.802Z,35.73
2022-08-06T09:46:37.341Z,34.85
2022-08-06T09:49:48.422Z,34.83
2022-08-06T09:52:17.196Z,34.20
2022-08-06T09:54:52.978Z,33.93
2022-08-06T09:57:34.704Z,33.94
2022-08-06T10:00:14.351Z,33.92
2022-08-06T10:02:45.770Z,34.06
2022-08-06T10:05:20.583Z,33.87
2022-08-06T10:08:02.015Z,33.92
2022-08-06T10:10:51.251Z,34.08
2022-08-06T10:13:31.032Z,33.76
2022-08-06T10:16:20.620Z,34.17
2022-08-06T10:18:55.571Z,34.36
2022-08-06T10:21:42.461Z,34.34
2022-08-06T10:24:25.822Z,34.26
2022-08-06T10:27:14.171Z,34.43
2022-08-06T10:29:55.627Z,34.57
2022-08-06T10:32:50.193Z,34.41
2022-08-06T10:35:25.440Z,34.38
2022-08-06T10:38:03.291Z,34.68
2022-08-06T10:40:36.965Z,34.78
2022-08-06T10:43:08.252Z,34.78
2022-08-06T10:45:48.665Z,34.72
2022-08-06T10:48:59.209Z,35.11
2022-08-06T10:51:09.608Z,35.01
2022-08-06T10:54:02.130Z,34.68
2022-08-06T10:56:38.099Z,34.72
2022-08-06T10:59:15.465Z,34.41
2022-08-06T11:02:17.804Z,34.68
2022-08-06T11:05:17.926Z,34.61
2022-08-06T11:08:09.640Z,34.78
2022-08-06T11:10:58.069Z,34.86
2022-08-06T11:13:37.431Z,34.90
2022-08-06T11:16:29.240Z,34.69
2022-08-06T11:19:13.290Z,34.72
2022-08-06T11:22:02.114Z,35.03
2022-08-06T11:24:37.572Z,35.22
2022-08-06T11:27:50.463Z,35.24
2022-08-06T11:30:26.621Z,34.74
2022-08-06T11:32:55.235Z,34.55
2022-08-06T11:35:51.558Z,34.67
2022-08-06T11:38:50.926Z,34.78
2022-08-06T11:41:44.634Z,35.03
2022-08-06T11:44:16.299Z,35.05
2022-08-06T11:46:50.157Z,34.71
2022-08-06T11:49:46.799Z,34.25
2022-08-06T11:52:39.345Z,34.44
2022-08-06T11:55:22.904Z,34.72
2022-08-06T11:58:17.016Z,34.95
2022-08-06T12:01:03.154Z,35.00
2022-08-06T12:03:52.659Z,35.00
2022-08-06T12:06:29.332Z,35.08
2022-08-06T12:09:39.516Z,34.23
2022-08-06T12:12:26.911Z,34.43
2022-08-06T12:14:57.225Z,34.43
2022-08-06T12:17:31.213Z,34.52
2022-08-06T12:20:23.797Z,34.72
2022-08-06T12:23:05.434Z,34.59
2022-08-06T12:25:46.773Z,34.29
2022-08-06T12:28:18.485Z,34.55
2022-08-06T12:30:53.476Z,34.54
2022-08-06T12:33:24.836Z,34.60
2022-08-06T12:35:56.380Z,34.46
2022-08-06T12:38:28.598Z,34.48
2022-08-06T12:41:10.920Z,34.47
2022-08-06T12:43:57.314Z,34.43
2022-08-06T12:46:29.442Z,34.53
2022-08-06T12:49:01.682Z,34.44
2022-08-06T12:51:32.375Z,34.31
2022-08-06T12:54:04.331Z,34.17
2022-08-06T12:56:37.602Z,34.12
2022-08-06T12:59:16.041Z,34.14
2022-08-06T13:02:08.892Z,34.18
2022-08-06T13:04:46.562Z,34.20
2022-08-06T13:07:16.823Z,34.09
2022-08-06T13:10:32.765Z,34.23
2022-08-06T13:14:03.618Z,33.88
2022-08-06T13:15:31.830Z,33.97
2022-08-06T13:18:41.389Z,33.78
2022-08-06T13:21:23.391Z,33.66
2022-08-06T13:23:55.403Z,33.67
2022-08-06T13:26:27.600Z,33.49
2022-08-06T13:30:30.987Z,33.44
2022-08-06T13:32:03.926Z,33.19
2022-08-06T13:34:54.760Z,33.12
2022-08-06T13:37:57.745Z,33.10
2022-08-06T13:40:47.496Z,32.83
2022-08-06T13:43:40.086Z,32.88
2022-08-06T13:46:20.038Z,32.95
2022-08-06T13:49:01.290Z,32.85
2022-08-06T13:51:34.416Z,32.73
2022-08-06T13:54:14.370Z,32.64
2022-08-06T13:56:52.288Z,32.51
2022-08-06T13:59:40.214Z,32.55
2022-08-06T14:02:11.820Z,32.47
2022-08-06T14:04:41.120Z,32.38
2022-08-06T14:07:19.213Z,32.24
2022-08-06T14:09:58.436Z,32.29
2022-08-06T14:12:39.206Z,32.04
2022-08-06T14:15:13.109Z,32.04
2022-08-06T14:17:45.562Z,32.01
2022-08-06T14:20:19.529Z,32.05
2022-08-06T14:22:55.135Z,31.93
2022-08-06T14:25:28.490Z,31.80
2022-08-06T14:27:56.961Z,31.71
2022-08-06T14:30:33.111Z,31.84
2022-08-06T14:33:18.815Z,31.60
2022-08-06T14:35:52.659Z,31.54
2022-08-06T14:38:32.320Z,31.35
2022-08-06T14:41:50.282Z,31.28
2022-08-06T14:44:29.865Z,31.39
2022-08-06T14:46:59.388Z,31.18
2022-08-06T14:49:33.509Z,31.14
2022-08-06T14:52:20.950Z,31.07
2022-08-06T14:54:55.129Z,30.93
2022-08-06T14:57:41.256Z,30.89
2022-08-06T15:00:13.131Z,30.82
2022-08-06T15:02:51.773Z,30.84
2022-08-06T15:05:42.326Z,30.87
2022-08-06T15:08:08.861Z,30.66
2022-08-06T15:10:37.769Z,30.56
2022-08-06T15:13:06.472Z,30.43
2022-08-06T15:15:36.696Z,30.38
2022-08-06T15:18:54.485Z,30.34
2022-08-06T15:21:10.080Z,30.37
2022-08-06T15:23:53.253Z,30.19
2022-08-06T15:26:42.081Z,30.21
2022-08-06T15:29:15.761Z,30.06
2022-08-06T15:31:45.837Z,29.91
2022-08-06T15:34:20.122Z,29.92
2022-08-06T15:36:59.460Z,29.89
2022-08-06T15:39:52.116Z,29.75
2022-08-06T15:42:24.132Z,29.62
2022-08-06T15:44:54.989Z,29.54
2022-08-06T15:47:31.587Z,29.54
2022-08-06T15:50:05.148Z,29.46
2022-08-06T15:52:37.253Z,29.40
2022-08-06T15:55:15.551Z,29.41
2022-08-06T15:58:04.368Z,29.37
2022-08-06T16:00:37.404Z,29.29
2022-08-06T16:03:07.886Z,29.39
2022-08-06T16:06:12.660Z,29.28
2022-08-06T16:08:34.197Z,29.20
2022-08-06T16:11:08.641Z,29.27
2022-08-06T16:13:38.864Z,29.19
2022-08-06T16:16:08.440Z,29.24
2022-08-06T16:18:49.227Z,29.25
2022-08-06T16:21:20.767Z,29.24
2022-08-06T16:23:55.147Z,29.28
2022-08-06T16:26:39.057Z,29.28
2022-08-06T16:29:10.358Z,29.22
2022-08-06T16:31:48.135Z,29.19
2022-08-06T16:34:25.146Z,29.14
2022-08-06T16:37:00.046Z,29.04
2022-08-06T16:39:35.954Z,29.00
2022-08-06T16:42:07.102Z,29.05
2022-08-06T16:47:27.271Z,28.93
2022-08-06T16:50:18.875Z,28.95
2022-08-06T16:54:08.016Z,28.86
2022-08-06T16:58:33.061Z,28.74
2022-08-06T17:02:14.742Z,28.53
2022-08-06T17:03:50.740Z,28.33
2022-08-06T17:06:26.912Z,28.37
2022-08-06T17:08:55.106Z,28.22
2022-08-06T17:11:45.450Z,28.18
2022-08-06T17:14:14.175Z,28.04
2022-08-06T17:16:45.347Z,27.99
2022-08-06T17:19:17.550Z,28.02
2022-08-06T17:24:38.071Z,27.67
2022-08-06T17:27:09.063Z,27.47
2022-08-06T17:29:46.929Z,27.35
2022-08-06T17:32:29.882Z,27.28
2022-08-06T17:35:12.439Z,27.20
2022-08-06T17:37:46.065Z,27.10
2022-08-06T17:40:19.566Z,27.02
2022-08-06T17:43:12.332Z,26.95
2022-08-06T17:46:02.473Z,26.59
2022-08-06T17:48:40.599Z,26.67
2022-08-06T17:51:10.029Z,26.51
2022-08-06T17:53:55.200Z,26.40
2022-08-06T17:56:30.207Z,26.36
2022-08-06T17:59:17.878Z,26.22
2022-08-06T18:01:50.454Z,26.06
2022-08-06T18:04:28.862Z,25.96
2022-08-06T18:07:00.306Z,25.89
2022-08-06T18:10:08.784Z,25.72
2022-08-06T18:12:33.333Z,25.65
2022-08-06T18:15:01.853Z,25.59
2022-08-06T18:17:59.808Z,25.40
2022-08-06T18:20:32.934Z,25.41
2022-08-06T18:23:21.315Z,25.35
2022-08-06T18:25:59.966Z,25.27
2022-08-06T18:28:39.954Z,25.18
2022-08-06T18:31:19.802Z,25.12
2022-08-06T18:33:54.004Z,25.00
2022-08-06T18:36:33.133Z,24.96
2022-08-06T18:39:13.362Z,24.89
2022-08-06T18:41:57.416Z,24.73
2022-08-06T18:44:27.185Z,24.73
2022-08-06T18:47:03.515Z,24.69
2022-08-06T18:49:50.977Z,24.54
2022-08-06T18:52:23.023Z,24.50
2022-08-06T18:54:56.214Z,24.55
2022-08-06T18:57:37.875Z,24.44
2022-08-06T19:00:21.112Z,24.43
2022-08-06T19:02:53.658Z,24.36
2022-08-06T19:05:28.083Z,24.29
2022-08-06T19:07:59.566Z,24.29
2022-08-06T19:10:29.313Z,24.22
2022-08-06T19:12:59.544Z,24.19
2022-08-06T19:15:45.963Z,24.13
2022-08-06T19:18:24.267Z,24.10
2022-08-06T19:20:53.645Z,24.14
2022-08-06T19:24:02.416Z,24.06
2022-08-06T19:26:13.097Z,24.02
2022-08-06T19:28:49.908Z,24.04
2022-08-06T19:31:41.473Z,23.95
2022-08-06T19:34:16.143Z,23.97
2022-08-06T19:36:48.160Z,23.85
2022-08-06T19:39:53.749Z,23.86
2022-08-06T19:42:32.466Z,23.77
2022-08-06T19:45:04.464Z,23.74
2022-08-06T19:47:47.887Z,23.68
2022-08-06T19:50:19.514Z,23.68
2022-08-06T19:52:48.903Z,23.60
2022-08-06T19:56:08.139Z,23.56
2022-08-06T19:58:26.230Z,23.47
2022-08-06T20:01:31.309Z,23.35
2022-08-06T20:03:57.887Z,23.30
2022-08-06T20:06:29.475Z,23.24
2022-08-06T20:08:58.410Z,23.16
2022-08-06T20:12:03.186Z,23.00
2022-08-06T20:16:44.158Z,23.11
2022-08-06T20:19:12.480Z,23.06
2022-08-06T20:21:42.874Z,23.01
2022-08-06T20:24:16.978Z,23.00
2022-08-06T20:26:59.206Z,22.97
2022-08-06T20:29:34.679Z,22.88
2022-08-06T20:32:17.767Z,22.80
2022-08-06T20:34:46.619Z,22.78
2022-08-06T20:37:16.547Z,22.75
2022-08-06T20:39:48.429Z,22.70
2022-08-06T20:42:18.275Z,22.56
2022-08-06T20:44:52.433Z,22.47
2022-08-06T20:47:45.772Z,22.42
2022-08-06T20:50:11.864Z,22.45
2022-08-06T20:52:40.567Z,22.40
2022-08-06T20:55:13.903Z,22.34
2022-08-06T20:57:47.822Z,22.34
2022-08-06T21:00:24.264Z,22.27
2022-08-06T21:03:28.051Z,22.23
2022-08-06T21:05:50.375Z,22.18
2022-08-06T21:08:27.019Z,22.11
2022-08-06T21:11:00.402Z,22.12
2022-08-06T21:13:35.865Z,21.97
2022-08-06T21:16:29.074Z,21.97
2022-08-06T21:19:06.789Z,21.90
2022-08-06T21:21:39.001Z,21.82
2022-08-06T21:24:07.672Z,21.72
2022-08-06T21:26:37.451Z,21.77
2022-08-06T21:29:41.920Z,21.69
2022-08-06T21:31:57.759Z,21.74
2022-08-06T21:34:30.413Z,21.61
2022-08-06T21:36:59.867Z,21.57
2022-08-06T21:39:44.129Z,21.50
2022-08-06T21:42:18.062Z,21.50
2022-08-06T21:44:47.461Z,21.41
2022-08-06T21:47:19.615Z,21.45
2022-08-06T21:50:19.867Z,21.35
2022-08-06T21:52:54.456Z,21.41
2022-08-06T21:56:37.034Z,21.28
2022-08-06T21:58:11.391Z,21.29
2022-08-06T22:00:44.760Z,21.20
2022-08-06T22:04:37.774Z,21.19
2022-08-06T22:06:20.522Z,21.21
2022-08-06T22:08:54.814Z,21.08
2022-08-06T22:12:36.511Z,21.00
2022-08-06T22:14:16.246Z,21.04
2022-08-06T22:16:48.091Z,20.97
2022-08-06T22:19:17.644Z,21.01
2022-08-06T22:21:50.853Z,20.97
2022-08-06T22:24:22.935Z,20.84
2022-08-06T22:26:56.589Z,20.76
2022-08-06T22:29:29.634Z,20.78
2022-08-06T22:31:59.836Z,20.70
2022-08-06T22:34:36.231Z,20.66
2022-08-06T22:37:14.510Z,20.67
2022-08-06T22:39:47.068Z,20.60
2022-08-06T22:42:56.313Z,20.60
2022-08-06T22:45:46.881Z,20.54
2022-08-06T22:48:03.463Z,20.47
2022-08-06T22:50:33.677Z,20.44
2022-08-06T22:54:27.510Z,20.41
2022-08-06T22:55:51.365Z,20.42
2022-08-06T22:59:06.342Z,20.37
2022-08-06T23:01:09.140Z,20.34
2022-08-06T23:03:55.343Z,20.38
2022-08-06T23:06:26.748Z,20.27
2022-08-06T23:09:00.107Z,20.23
2022-08-06T23:11:29.133Z,20.10
2022-08-06T23:13:57.067Z,20.18
2022-08-06T23:16:28.843Z,20.13
2022-08-06T23:18:57.226Z,20.08
2022-08-06T23:21:56.532Z,20.06
2022-08-06T23:24:33.358Z,20.06
2022-08-06T23:27:07.110Z,20.00
2022-08-06T23:30:09.985Z,19.88
2022-08-06T23:32:35.830Z,19.86
2022-08-06T23:35:36.041Z,19.87
2022-08-06T23:38:32.458Z,19.86
2022-08-06T23:40:50.125Z,19.76
2022-08-06T23:43:19.659Z,19.81
2022-08-06T23:45:48.548Z,19.72
2022-08-06T23:48:16.934Z,19.73
2022-08-06T23:50:50.375Z,19.75
2022-08-06T23:54:08.444Z,19.72
2022-08-06T23:56:15.921Z,19.73
2022-08-06T23:58:47.025Z,19.66
